sensor_id;sensor_type;location;lat;lon;timestamp;pressure;altitude;pressure_sealevel;temperature;humidity
50652;BME280;66928;52.086;5.240;2023-04-09T05:44:16;102384.0;;;11.07;75.19
50652;BME280;66928;52.086;5.240;2023-04-09T05:45:52;102386.0;;;10.96;75.78
50652;BME280;66928;52.086;5.240;2023-04-09T05:47:29;102386.0;;;10.95;75.94
50652;BME280;66928;52.086;5.240;2023-04-09T05:50:48;102390.0;;;10.98;75.34
50652;BME280;66928;52.086;5.240;2023-04-09T05:52:25;102391.0;;;10.81;75.14
50652;BME280;66928;52.086;5.240;2023-04-09T05:54:02;102395.0;;;10.63;75.33
50652;BME280;66928;52.086;5.240;2023-04-09T05:55:38;102390.0;;;10.9;74.31
50652;BME280;66928;52.086;5.240;2023-04-09T05:58:50;102392.0;;;10.86;73.98
50652;BME280;66928;52.086;5.240;2023-04-09T06:00:27;102396.0;;;10.82;74.02
50652;BME280;66928;52.086;5.240;2023-04-09T06:02:03;102396.0;;;10.67;74.16
50652;BME280;66928;52.086;5.240;2023-04-09T06:05:18;102397.0;;;10.89;74.22
50652;BME280;66928;52.086;5.240;2023-04-09T06:06:54;102398.0;;;11.01;73.55
50652;BME280;66928;52.086;5.240;2023-04-09T06:08:30;102395.0;;;11.1;73.08
50652;BME280;66928;52.086;5.240;2023-04-09T06:11:44;102397.0;;;11.2;72.83
50652;BME280;66928;52.086;5.240;2023-04-09T06:13:21;102401.0;;;11.17;73.05
50652;BME280;66928;52.086;5.240;2023-04-09T06:14:56;102398.0;;;11.0;73.25
50652;BME280;66928;52.086;5.240;2023-04-09T06:16:33;102397.0;;;11.25;72.47
50652;BME280;66928;52.086;5.240;2023-04-09T06:19:46;102403.0;;;11.24;72.44
50652;BME280;66928;52.086;5.240;2023-04-09T06:21:22;102405.0;;;11.2;72.8
50652;BME280;66928;52.086;5.240;2023-04-09T06:22:59;102401.0;;;11.31;72.12
50652;BME280;66928;52.086;5.240;2023-04-09T06:26:12;102403.0;;;11.31;71.83
50652;BME280;66928;52.086;5.240;2023-04-09T06:27:49;102405.0;;;11.31;72.27
50652;BME280;66928;52.086;5.240;2023-04-09T06:29:25;102406.0;;;11.36;71.7
50652;BME280;66928;52.086;5.240;2023-04-09T06:32:37;102408.0;;;11.13;71.92
50652;BME280;66928;52.086;5.240;2023-04-09T06:34:13;102406.0;;;11.37;71.58
50652;BME280;66928;52.086;5.240;2023-04-09T06:35:49;102414.00000000001;;;11.16;72.16
50652;BME280;66928;52.086;5.240;2023-04-09T06:37:26;102414.00000000001;;;10.92;72.62
50652;BME280;66928;52.086;5.240;2023-04-09T06:40:38;102408.99999999999;;;11.11;72.41
50652;BME280;66928;52.086;5.240;2023-04-09T06:42:14;102408.99999999999;;;10.84;72.47
50652;BME280;66928;52.086;5.240;2023-04-09T06:43:51;102413.00000000001;;;10.92;72.52
50652;BME280;66928;52.086;5.240;2023-04-09T06:47:04;102415.00000000001;;;11.11;72.05
50652;BME280;66928;52.086;5.240;2023-04-09T06:48:40;102414.00000000001;;;11.04;71.86
50652;BME280;66928;52.086;5.240;2023-04-09T06:50:17;102415.00000000001;;;10.92;72.19
50652;BME280;66928;52.086;5.240;2023-04-09T06:53:30;102417.0;;;10.88;72.31
50652;BME280;66928;52.086;5.240;2023-04-09T06:55:07;102416.00000000001;;;10.89;72.06
50652;BME280;66928;52.086;5.240;2023-04-09T06:56:43;102413.00000000001;;;10.86;72.83
50652;BME280;66928;52.086;5.240;2023-04-09T06:59:55;102409.99999999999;;;11.15;72.39
50652;BME280;66928;52.086;5.240;2023-04-09T07:01:32;102409.99999999999;;;11.4;71.62
50652;BME280;66928;52.086;5.240;2023-04-09T07:03:09;102413.00000000001;;;11.34;71.17
50652;BME280;66928;52.086;5.240;2023-04-09T07:04:45;102417.0;;;11.5;71.37
50652;BME280;66928;52.086;5.240;2023-04-09T07:07:57;102419.0;;;11.52;71.13
50652;BME280;66928;52.086;5.240;2023-04-09T07:09:33;102420.0;;;11.45;70.98
50652;BME280;66928;52.086;5.240;2023-04-09T07:11:09;102418.0;;;11.45;70.31
50652;BME280;66928;52.086;5.240;2023-04-09T07:14:21;102417.0;;;11.58;70.11
50652;BME280;66928;52.086;5.240;2023-04-09T07:15:58;102421.0;;;11.37;70.45
50652;BME280;66928;52.086;5.240;2023-04-09T07:17:34;102417.0;;;11.47;70.17
50652;BME280;66928;52.086;5.240;2023-04-09T07:20:47;102419.0;;;11.76;69.81
50652;BME280;66928;52.086;5.240;2023-04-09T07:22:24;102417.0;;;11.59;69.97
50652;BME280;66928;52.086;5.240;2023-04-09T07:24:03;102418.0;;;11.63;70.72
50652;BME280;66928;52.086;5.240;2023-04-09T07:25:39;102422.0;;;11.33;71.19
50652;BME280;66928;52.086;5.240;2023-04-09T07:28:52;102421.0;;;11.44;71.12
50652;BME280;66928;52.086;5.240;2023-04-09T07:30:28;102422.0;;;11.43;70.98
50652;BME280;66928;52.086;5.240;2023-04-09T07:32:04;102426.0;;;11.35;71.3
50652;BME280;66928;52.086;5.240;2023-04-09T07:35:18;102425.0;;;11.38;71.73
50652;BME280;66928;52.086;5.240;2023-04-09T07:36:54;102423.0;;;11.54;71.83
50652;BME280;66928;52.086;5.240;2023-04-09T07:38:31;102421.0;;;11.8;71.47
50652;BME280;66928;52.086;5.240;2023-04-09T07:41:44;102420.0;;;11.71;71.06
50652;BME280;66928;52.086;5.240;2023-04-09T07:43:20;102419.0;;;11.65;71.17
50652;BME280;66928;52.086;5.240;2023-04-09T07:44:56;102418.0;;;11.86;71.11
50652;BME280;66928;52.086;5.240;2023-04-09T07:46:32;102420.0;;;11.78;70.77
50652;BME280;66928;52.086;5.240;2023-04-09T07:49:44;102416.00000000001;;;11.82;70.49
50652;BME280;66928;52.086;5.240;2023-04-09T07:51:21;102415.00000000001;;;11.76;70.03
50652;BME280;66928;52.086;5.240;2023-04-09T07:52:57;102417.0;;;11.67;69.66
50652;BME280;66928;52.086;5.240;2023-04-09T07:56:10;102416.00000000001;;;11.86;68.83
50652;BME280;66928;52.086;5.240;2023-04-09T07:57:46;102415.00000000001;;;11.94;68.62
50652;BME280;66928;52.086;5.240;2023-04-09T07:59:22;102413.00000000001;;;12.17;68.3
50652;BME280;66928;52.086;5.240;2023-04-09T08:02:35;102409.99999999999;;;12.02;68.27
50652;BME280;66928;52.086;5.240;2023-04-09T08:04:11;102411.99999999999;;;12.18;68.08
50652;BME280;66928;52.086;5.240;2023-04-09T08:05:47;102411.99999999999;;;12.05;68.87
50652;BME280;66928;52.086;5.240;2023-04-09T08:07:23;102416.00000000001;;;12.01;68.8
50652;BME280;66928;52.086;5.240;2023-04-09T08:10:37;102416.00000000001;;;11.98;68.23
50652;BME280;66928;52.086;5.240;2023-04-09T08:12:14;102417.0;;;12.05;68.03
50652;BME280;66928;52.086;5.240;2023-04-09T08:13:50;102413.00000000001;;;11.86;68.08
50652;BME280;66928;52.086;5.240;2023-04-09T08:17:03;102414.00000000001;;;11.78;67.91
50652;BME280;66928;52.086;5.240;2023-04-09T08:18:39;102417.0;;;12.16;66.75
50652;BME280;66928;52.086;5.240;2023-04-09T08:20:15;102416.00000000001;;;12.14;66.77
50652;BME280;66928;52.086;5.240;2023-04-09T08:23:28;102408.0;;;12.42;66.13
50652;BME280;66928;52.086;5.240;2023-04-09T08:25:05;102408.0;;;12.65;65.23
50652;BME280;66928;52.086;5.240;2023-04-09T08:26:41;102414.00000000001;;;12.73;64.39
50652;BME280;66928;52.086;5.240;2023-04-09T08:28:18;102413.00000000001;;;12.69;63.34
50652;BME280;66928;52.086;5.240;2023-04-09T08:31:30;102416.00000000001;;;12.79;63.95
50652;BME280;66928;52.086;5.240;2023-04-09T08:33:08;102414.00000000001;;;12.84;63.62
50652;BME280;66928;52.086;5.240;2023-04-09T08:34:44;102416.00000000001;;;12.91;63.73
50652;BME280;66928;52.086;5.240;2023-04-09T08:37:58;102413.00000000001;;;12.76;62.97
50652;BME280;66928;52.086;5.240;2023-04-09T08:39:34;102415.00000000001;;;12.81;63.12
50652;BME280;66928;52.086;5.240;2023-04-09T08:41:17;102411.99999999999;;;12.63;63.22
50652;BME280;66928;52.086;5.240;2023-04-09T08:44:31;102411.99999999999;;;12.72;64.45
50652;BME280;66928;52.086;5.240;2023-04-09T08:46:09;102408.99999999999;;;12.96;63.95
50652;BME280;66928;52.086;5.240;2023-04-09T08:47:46;102406.0;;;12.98;63.66
50652;BME280;66928;52.086;5.240;2023-04-09T08:49:24;102404.0;;;12.93;62.66
50652;BME280;66928;52.086;5.240;2023-04-09T08:52:37;102403.0;;;12.92;62.32
50652;BME280;66928;52.086;5.240;2023-04-09T08:54:15;102402.0;;;12.87;62.34
50652;BME280;66928;52.086;5.240;2023-04-09T08:55:52;102400.0;;;12.78;64.72
50652;BME280;66928;52.086;5.240;2023-04-09T08:59:04;102409.99999999999;;;12.87;63.68
50652;BME280;66928;52.086;5.240;2023-04-09T09:00:40;102400.0;;;12.87;64.53
50652;BME280;66928;52.086;5.240;2023-04-09T09:02:16;102403.0;;;12.96;63.97
50652;BME280;66928;52.086;5.240;2023-04-09T09:03:56;102400.0;;;13.18;62.92
50652;BME280;66928;52.086;5.240;2023-04-09T09:07:14;102399.0;;;13.0;62.65
50652;BME280;66928;52.086;5.240;2023-04-09T09:09:03;102401.0;;;12.86;64.08
50652;BME280;66928;52.086;5.240;2023-04-09T09:10:43;102394.0;;;13.02;62.92
50652;BME280;66928;52.086;5.240;2023-04-09T09:12:37;102394.0;;;12.93;62.75
50652;BME280;66928;52.086;5.240;2023-04-09T09:15:54;102387.0;;;13.13;62.52
50652;BME280;66928;52.086;5.240;2023-04-09T09:17:53;102391.0;;;13.29;62.66
50652;BME280;66928;52.086;5.240;2023-04-09T09:19:32;102393.0;;;13.1;62.59
50652;BME280;66928;52.086;5.240;2023-04-09T09:21:09;102394.0;;;13.36;62.07
50652;BME280;66928;52.086;5.240;2023-04-09T09:22:48;102393.0;;;13.2;61.7
50652;BME280;66928;52.086;5.240;2023-04-09T09:26:10;102392.0;;;13.26;62.01
50652;BME280;66928;52.086;5.240;2023-04-09T09:27:47;102387.0;;;13.21;62.21
50652;BME280;66928;52.086;5.240;2023-04-09T09:29:24;102386.0;;;13.31;62.55
50652;BME280;66928;52.086;5.240;2023-04-09T09:32:44;102383.0;;;13.1;63.3
50652;BME280;66928;52.086;5.240;2023-04-09T09:34:22;102378.0;;;13.18;63.27
50652;BME280;66928;52.086;5.240;2023-04-09T09:35:59;102380.0;;;13.41;62.57
50652;BME280;66928;52.086;5.240;2023-04-09T09:37:36;102377.0;;;13.67;62.23
50652;BME280;66928;52.086;5.240;2023-04-09T09:40:52;102377.0;;;13.85;61.93
50652;BME280;66928;52.086;5.240;2023-04-09T09:42:28;102378.0;;;13.94;60.94
50652;BME280;66928;52.086;5.240;2023-04-09T09:44:05;102375.0;;;13.8;61.44
50652;BME280;66928;52.086;5.240;2023-04-09T09:45:43;102376.0;;;13.74;61.53
50652;BME280;66928;52.086;5.240;2023-04-09T09:48:59;102378.0;;;13.77;61.23
50652;BME280;66928;52.086;5.240;2023-04-09T09:50:36;102380.0;;;14.02;61.43
50652;BME280;66928;52.086;5.240;2023-04-09T09:52:13;102383.0;;;14.11;61.05
50652;BME280;66928;52.086;5.240;2023-04-09T09:55:31;102374.0;;;14.24;61.06
50652;BME280;66928;52.086;5.240;2023-04-09T09:57:09;102380.0;;;14.13;60.73
50652;BME280;66928;52.086;5.240;2023-04-09T09:58:48;102375.0;;;14.37;60.82
50652;BME280;66928;52.086;5.240;2023-04-09T10:00:31;102366.0;;;14.51;60.73
50652;BME280;66928;52.086;5.240;2023-04-09T10:03:55;102365.0;;;14.5;60.43
50652;BME280;66928;52.086;5.240;2023-04-09T10:05:33;102363.0;;;14.47;60.67
50652;BME280;66928;52.086;5.240;2023-04-09T10:08:49;102362.0;;;14.62;59.56
50652;BME280;66928;52.086;5.240;2023-04-09T10:12:03;102358.0;;;14.66;59.47
50652;BME280;66928;52.086;5.240;2023-04-09T10:13:47;102351.0;;;14.51;60.16
50652;BME280;66928;52.086;5.240;2023-04-09T10:15:27;102352.0;;;14.45;60.41
50652;BME280;66928;52.086;5.240;2023-04-09T10:17:05;102346.0;;;14.66;60.08
50652;BME280;66928;52.086;5.240;2023-04-09T10:20:23;102342.0;;;14.72;60.18
50652;BME280;66928;52.086;5.240;2023-04-09T10:22:04;102338.0;;;14.77;59.6
50652;BME280;66928;52.086;5.240;2023-04-09T10:23:44;102333.0;;;14.76;59.26
50652;BME280;66928;52.086;5.240;2023-04-09T10:27:08;102333.0;;;14.84;58.79
50652;BME280;66928;52.086;5.240;2023-04-09T10:28:45;102333.0;;;14.93;58.37
50652;BME280;66928;52.086;5.240;2023-04-09T10:30:30;102330.0;;;14.95;58.56
50652;BME280;66928;52.086;5.240;2023-04-09T10:32:07;102324.0;;;14.97;58.63
50652;BME280;66928;52.086;5.240;2023-04-09T10:35:24;102330.0;;;15.06;60.06
50652;BME280;66928;52.086;5.240;2023-04-09T10:37:00;102322.0;;;15.07;59.19
50652;BME280;66928;52.086;5.240;2023-04-09T10:38:38;102317.0;;;15.32;57.86
50652;BME280;66928;52.086;5.240;2023-04-09T10:40:17;102325.0;;;15.35;58.09
50652;BME280;66928;52.086;5.240;2023-04-09T10:43:35;102323.0;;;15.21;57.96
50652;BME280;66928;52.086;5.240;2023-04-09T10:45:12;102315.0;;;15.28;57.6
50652;BME280;66928;52.086;5.240;2023-04-09T10:46:52;102317.0;;;15.35;58.03
50652;BME280;66928;52.086;5.240;2023-04-09T10:48:31;102312.0;;;15.46;58.69
50652;BME280;66928;52.086;5.240;2023-04-09T10:52:00;102309.0;;;15.62;58.21
50652;BME280;66928;52.086;5.240;2023-04-09T10:53:37;102308.0;;;15.58;57.91
50652;BME280;66928;52.086;5.240;2023-04-09T10:55:29;102303.0;;;15.48;57.31
50652;BME280;66928;52.086;5.240;2023-04-09T10:57:14;102300.0;;;15.71;56.6
50652;BME280;66928;52.086;5.240;2023-04-09T11:00:29;102305.0;;;15.76;57.41
50652;BME280;66928;52.086;5.240;2023-04-09T11:02:08;102307.0;;;15.88;56.49
50652;BME280;66928;52.086;5.240;2023-04-09T11:04:06;102303.0;;;15.97;55.84
50652;BME280;66928;52.086;5.240;2023-04-09T11:05:46;102307.0;;;15.98;55.99
50652;BME280;66928;52.086;5.240;2023-04-09T11:07:24;102305.0;;;16.11;54.85
50652;BME280;66928;52.086;5.240;2023-04-09T11:10:39;102302.0;;;15.97;55.22
50652;BME280;66928;52.086;5.240;2023-04-09T11:12:16;102305.0;;;15.96;55.3
50652;BME280;66928;52.086;5.240;2023-04-09T11:13:57;102295.0;;;16.05;54.63
50652;BME280;66928;52.086;5.240;2023-04-09T11:17:11;102292.0;;;16.11;54.64
50652;BME280;66928;52.086;5.240;2023-04-09T11:18:48;102285.0;;;16.13;54.53
50652;BME280;66928;52.086;5.240;2023-04-09T11:20:24;102285.0;;;16.22;54.89
50652;BME280;66928;52.086;5.240;2023-04-09T11:22:03;102284.0;;;16.21;55.44
50652;BME280;66928;52.086;5.240;2023-04-09T11:25:18;102285.0;;;16.31;54.55
50652;BME280;66928;52.086;5.240;2023-04-09T11:26:55;102280.0;;;16.39;54.86
50652;BME280;66928;52.086;5.240;2023-04-09T11:28:33;102280.0;;;16.46;53.96
50652;BME280;66928;52.086;5.240;2023-04-09T11:31:47;102274.0;;;16.45;53.92
50652;BME280;66928;52.086;5.240;2023-04-09T11:33:30;102280.0;;;16.45;53.7
50652;BME280;66928;52.086;5.240;2023-04-09T11:35:10;102278.0;;;16.27;53.25
50652;BME280;66928;52.086;5.240;2023-04-09T11:36:47;102278.0;;;16.4;52.42
50652;BME280;66928;52.086;5.240;2023-04-09T11:40:00;102280.0;;;16.36;52.71
50652;BME280;66928;52.086;5.240;2023-04-09T11:41:37;102281.0;;;16.34;53.01
50652;BME280;66928;52.086;5.240;2023-04-09T11:43:14;102270.0;;;16.54;52.48
50652;BME280;66928;52.086;5.240;2023-04-09T11:46:29;102280.0;;;16.73;52.9
50652;BME280;66928;52.086;5.240;2023-04-09T11:48:06;102275.0;;;16.53;51.07
50652;BME280;66928;52.086;5.240;2023-04-09T11:49:44;102274.0;;;16.38;50.4
50652;BME280;66928;52.086;5.240;2023-04-09T11:51:20;102276.0;;;16.22;50.33
50652;BME280;66928;52.086;5.240;2023-04-09T11:54:34;102273.0;;;16.3;50.32
50652;BME280;66928;52.086;5.240;2023-04-09T11:56:11;102274.0;;;16.41;51.01
50652;BME280;66928;52.086;5.240;2023-04-09T11:57:50;102271.0;;;16.5;50.57
50652;BME280;66928;52.086;5.240;2023-04-09T12:01:03;102264.0;;;16.47;50.33
50652;BME280;66928;52.086;5.240;2023-04-09T12:02:41;102260.0;;;16.59;50.6
50652;BME280;66928;52.086;5.240;2023-04-09T12:04:18;102255.0;;;16.68;51.47
50652;BME280;66928;52.086;5.240;2023-04-09T12:05:59;102251.0;;;16.59;51.51
50652;BME280;66928;52.086;5.240;2023-04-09T12:09:13;102250.0;;;16.28;50.9
50652;BME280;66928;52.086;5.240;2023-04-09T12:10:51;102258.0;;;16.12;51.12
50652;BME280;66928;52.086;5.240;2023-04-09T12:12:27;102256.0;;;16.0;51.42
50652;BME280;66928;52.086;5.240;2023-04-09T12:15:40;102256.0;;;15.78;51.72
50652;BME280;66928;52.086;5.240;2023-04-09T12:17:19;102256.0;;;15.74;51.54
50652;BME280;66928;52.086;5.240;2023-04-09T12:18:59;102257.0;;;16.02;51.02
50652;BME280;66928;52.086;5.240;2023-04-09T12:20:37;102249.0;;;16.09;49.62
50652;BME280;66928;52.086;5.240;2023-04-09T12:23:50;102249.0;;;16.02;48.96
50652;BME280;66928;52.086;5.240;2023-04-09T12:25:28;102249.0;;;16.11;48.57
50652;BME280;66928;52.086;5.240;2023-04-09T12:27:04;102252.0;;;16.16;49.09
50652;BME280;66928;52.086;5.240;2023-04-09T12:30:19;102255.0;;;16.14;47.1
50652;BME280;66928;52.086;5.240;2023-04-09T12:31:55;102257.0;;;16.18;47.05
50652;BME280;66928;52.086;5.240;2023-04-09T12:33:31;102261.0;;;16.14;46.82
50652;BME280;66928;52.086;5.240;2023-04-09T12:36:44;102258.0;;;16.29;47.33
50652;BME280;66928;52.086;5.240;2023-04-09T12:38:20;102262.0;;;16.34;45.98
50652;BME280;66928;52.086;5.240;2023-04-09T12:39:57;102255.0;;;16.16;46.02
50652;BME280;66928;52.086;5.240;2023-04-09T12:41:33;102256.0;;;16.3;46.53
50652;BME280;66928;52.086;5.240;2023-04-09T12:44:45;102257.0;;;16.45;46.63
50652;BME280;66928;52.086;5.240;2023-04-09T12:46:21;102247.0;;;16.62;47.06
50652;BME280;66928;52.086;5.240;2023-04-09T12:47:58;102252.0;;;16.68;47.36
50652;BME280;66928;52.086;5.240;2023-04-09T12:51:11;102249.0;;;16.63;46.99
50652;BME280;66928;52.086;5.240;2023-04-09T12:52:48;102253.0;;;16.52;46.13
50652;BME280;66928;52.086;5.240;2023-04-09T12:54:24;102244.0;;;16.56;45.73
50652;BME280;66928;52.086;5.240;2023-04-09T12:57:38;102255.0;;;16.5;46.0
50652;BME280;66928;52.086;5.240;2023-04-09T12:59:14;102251.0;;;16.78;46.33
50652;BME280;66928;52.086;5.240;2023-04-09T13:00:50;102243.0;;;16.87;46.19
50652;BME280;66928;52.086;5.240;2023-04-09T13:02:27;102243.0;;;16.91;45.84
50652;BME280;66928;52.086;5.240;2023-04-09T13:05:39;102245.0;;;16.89;46.49
50652;BME280;66928;52.086;5.240;2023-04-09T13:07:16;102247.0;;;16.9;45.98
50652;BME280;66928;52.086;5.240;2023-04-09T13:08:52;102246.0;;;16.65;45.32
50652;BME280;66928;52.086;5.240;2023-04-09T13:12:06;102245.0;;;16.5;45.21
50652;BME280;66928;52.086;5.240;2023-04-09T13:13:42;102243.0;;;16.34;45.66
50652;BME280;66928;52.086;5.240;2023-04-09T13:15:18;102249.0;;;16.43;46.3
50652;BME280;66928;52.086;5.240;2023-04-09T13:18:32;102259.0;;;16.5;47.09
50652;BME280;66928;52.086;5.240;2023-04-09T13:20:09;102259.0;;;16.27;47.23
50652;BME280;66928;52.086;5.240;2023-04-09T13:21:46;102256.0;;;16.36;47.04
50652;BME280;66928;52.086;5.240;2023-04-09T13:23:22;102253.0;;;16.57;46.64
50652;BME280;66928;52.086;5.240;2023-04-09T13:26:34;102252.0;;;16.45;46.46
50652;BME280;66928;52.086;5.240;2023-04-09T13:28:10;102248.0;;;16.65;45.91
50652;BME280;66928;52.086;5.240;2023-04-09T13:29:47;102245.0;;;16.66;46.69
50652;BME280;66928;52.086;5.240;2023-04-09T13:33:00;102242.0;;;16.75;45.98
50652;BME280;66928;52.086;5.240;2023-04-09T13:34:36;102241.0;;;16.8;45.16
50652;BME280;66928;52.086;5.240;2023-04-09T13:36:13;102238.0;;;16.87;44.61
50652;BME280;66928;52.086;5.240;2023-04-09T13:39:26;102239.0;;;16.87;44.89
50652;BME280;66928;52.086;5.240;2023-04-09T13:41:03;102236.0;;;16.61;44.7
50652;BME280;66928;52.086;5.240;2023-04-09T13:42:39;102233.0;;;16.7;44.46
50652;BME280;66928;52.086;5.240;2023-04-09T13:44:16;102224.0;;;16.7;45.0
50652;BME280;66928;52.086;5.240;2023-04-09T13:47:29;102219.0;;;16.61;44.7
50652;BME280;66928;52.086;5.240;2023-04-09T13:49:05;102208.0;;;16.62;44.63
50652;BME280;66928;52.086;5.240;2023-04-09T13:50:41;102208.0;;;16.68;44.59
50652;BME280;66928;52.086;5.240;2023-04-09T13:53:54;102208.0;;;16.7;44.38
50652;BME280;66928;52.086;5.240;2023-04-09T13:55:31;102208.0;;;16.84;44.82
50652;BME280;66928;52.086;5.240;2023-04-09T13:57:07;102206.0;;;16.56;43.83
50652;BME280;66928;52.086;5.240;2023-04-09T14:00:20;102208.0;;;16.5;44.81
50652;BME280;66928;52.086;5.240;2023-04-09T14:01:56;102214.0;;;16.7;45.03
50652;BME280;66928;52.086;5.240;2023-04-09T14:03:32;102214.0;;;16.65;44.73
50652;BME280;66928;52.086;5.240;2023-04-09T14:05:09;102212.0;;;16.59;44.52
50652;BME280;66928;52.086;5.240;2023-04-09T14:08:22;102212.0;;;16.62;44.04
50652;BME280;66928;52.086;5.240;2023-04-09T14:09:58;102207.0;;;16.52;43.8
50652;BME280;66928;52.086;5.240;2023-04-09T14:11:34;102199.0;;;16.46;43.59
50652;BME280;66928;52.086;5.240;2023-04-09T14:14:48;102188.0;;;16.4;43.32
50652;BME280;66928;52.086;5.240;2023-04-09T14:16:24;102180.0;;;16.34;43.55
50652;BME280;66928;52.086;5.240;2023-04-09T14:18:00;102181.0;;;16.06;43.94
50652;BME280;66928;52.086;5.240;2023-04-09T14:21:14;102178.0;;;16.2;45.12
50652;BME280;66928;52.086;5.240;2023-04-09T14:22:50;102186.0;;;16.47;44.94
50652;BME280;66928;52.086;5.240;2023-04-09T14:24:26;102184.0;;;16.57;44.38
50652;BME280;66928;52.086;5.240;2023-04-09T14:26:04;102186.0;;;16.61;43.94
50652;BME280;66928;52.086;5.240;2023-04-09T14:29:17;102191.0;;;16.73;44.0
50652;BME280;66928;52.086;5.240;2023-04-09T14:30:54;102190.0;;;16.8;43.53
50652;BME280;66928;52.086;5.240;2023-04-09T14:32:30;102186.0;;;16.68;42.84
50652;BME280;66928;52.086;5.240;2023-04-09T14:35:42;102181.0;;;16.52;41.74
50652;BME280;66928;52.086;5.240;2023-04-09T14:37:18;102176.0;;;16.75;42.45
50652;BME280;66928;52.086;5.240;2023-04-09T14:38:55;102170.0;;;16.59;41.88
50652;BME280;66928;52.086;5.240;2023-04-09T14:42:08;102166.0;;;16.57;42.62
50652;BME280;66928;52.086;5.240;2023-04-09T14:43:44;102164.0;;;16.52;42.86
50652;BME280;66928;52.086;5.240;2023-04-09T14:45:20;102165.0;;;16.43;43.37
50652;BME280;66928;52.086;5.240;2023-04-09T14:46:57;102163.0;;;16.27;43.52
50652;BME280;66928;52.086;5.240;2023-04-09T14:50:10;102164.0;;;16.22;44.13
50652;BME280;66928;52.086;5.240;2023-04-09T14:51:46;102157.0;;;16.29;44.04
50652;BME280;66928;52.086;5.240;2023-04-09T14:53:22;102153.0;;;16.36;43.61
50652;BME280;66928;52.086;5.240;2023-04-09T14:56:34;102149.0;;;16.34;43.28
50652;BME280;66928;52.086;5.240;2023-04-09T14:58:11;102149.0;;;16.5;44.01
50652;BME280;66928;52.086;5.240;2023-04-09T14:59:47;102155.0;;;16.64;43.57
50652;BME280;66928;52.086;5.240;2023-04-09T15:03:01;102152.0;;;16.59;42.61
50652;BME280;66928;52.086;5.240;2023-04-09T15:04:37;102142.0;;;16.59;42.49
50652;BME280;66928;52.086;5.240;2023-04-09T15:06:13;102128.0;;;16.61;43.66
50652;BME280;66928;52.086;5.240;2023-04-09T15:09:26;102126.0;;;16.68;42.77
50652;BME280;66928;52.086;5.240;2023-04-09T15:11:03;102130.0;;;16.7;43.41
50652;BME280;66928;52.086;5.240;2023-04-09T15:12:40;102131.0;;;16.61;42.57
50652;BME280;66928;52.086;5.240;2023-04-09T15:14:17;102132.0;;;16.7;42.72
50652;BME280;66928;52.086;5.240;2023-04-09T15:17:30;102131.0;;;16.7;43.52
50652;BME280;66928;52.086;5.240;2023-04-09T15:19:07;102130.0;;;16.29;43.71
50652;BME280;66928;52.086;5.240;2023-04-09T15:20:43;102120.0;;;16.22;43.36
50652;BME280;66928;52.086;5.240;2023-04-09T15:23:57;102116.0;;;16.18;43.68
50652;BME280;66928;52.086;5.240;2023-04-09T15:25:34;102114.0;;;16.27;43.99
50652;BME280;66928;52.086;5.240;2023-04-09T15:27:10;102115.0;;;16.28;43.62
50652;BME280;66928;52.086;5.240;2023-04-09T15:28:47;102113.0;;;16.34;43.13
50652;BME280;66928;52.086;5.240;2023-04-09T15:32:01;102111.0;;;16.2;43.37
50652;BME280;66928;52.086;5.240;2023-04-09T15:33:40;102112.0;;;16.29;43.21
50652;BME280;66928;52.086;5.240;2023-04-09T15:35:17;102114.0;;;16.52;43.43
50652;BME280;66928;52.086;5.240;2023-04-09T15:38:30;102116.0;;;16.66;43.49
50652;BME280;66928;52.086;5.240;2023-04-09T15:40:07;102117.0;;;16.81;43.23
50652;BME280;66928;52.086;5.240;2023-04-09T15:41:44;102112.0;;;16.7;42.38
50652;BME280;66928;52.086;5.240;2023-04-09T15:44:58;102105.0;;;16.88;43.05
50652;BME280;66928;52.086;5.240;2023-04-09T15:48:10;102113.0;;;17.09;42.04
50652;BME280;66928;52.086;5.240;2023-04-09T15:49:46;102116.0;;;17.16;42.06
50652;BME280;66928;52.086;5.240;2023-04-09T15:52:58;102118.0;;;17.29;41.33
50652;BME280;66928;52.086;5.240;2023-04-09T15:54:35;102115.0;;;17.02;41.14
50652;BME280;66928;52.086;5.240;2023-04-09T15:56:11;102109.0;;;17.0;41.43
50652;BME280;66928;52.086;5.240;2023-04-09T15:59:24;102107.0;;;16.79;41.16
50652;BME280;66928;52.086;5.240;2023-04-09T16:01:05;102108.0;;;16.65;40.96
50652;BME280;66928;52.086;5.240;2023-04-09T16:02:41;102101.0;;;16.59;41.15
50652;BME280;66928;52.086;5.240;2023-04-09T16:05:54;102100.0;;;16.61;42.43
50652;BME280;66928;52.086;5.240;2023-04-09T16:07:30;102105.0;;;16.73;42.27
50652;BME280;66928;52.086;5.240;2023-04-09T16:09:06;102105.0;;;16.87;41.82
50652;BME280;66928;52.086;5.240;2023-04-09T16:10:42;102105.0;;;16.96;41.97
50652;BME280;66928;52.086;5.240;2023-04-09T16:13:54;102102.0;;;16.77;41.47
50652;BME280;66928;52.086;5.240;2023-04-09T16:15:31;102101.0;;;16.62;41.94
50652;BME280;66928;52.086;5.240;2023-04-09T16:17:07;102100.0;;;16.75;42.37
50652;BME280;66928;52.086;5.240;2023-04-09T16:20:20;102099.0;;;16.84;42.47
50652;BME280;66928;52.086;5.240;2023-04-09T16:21:56;102097.0;;;16.86;41.42
50652;BME280;66928;52.086;5.240;2023-04-09T16:23:32;102099.0;;;16.87;41.65
50652;BME280;66928;52.086;5.240;2023-04-09T16:26:45;102094.0;;;17.04;41.69
50652;BME280;66928;52.086;5.240;2023-04-09T16:28:22;102090.0;;;16.89;41.61
50652;BME280;66928;52.086;5.240;2023-04-09T16:29:58;102085.0;;;16.71;41.41
50652;BME280;66928;52.086;5.240;2023-04-09T16:31:35;102091.0;;;16.59;42.56
50652;BME280;66928;52.086;5.240;2023-04-09T16:34:49;102094.0;;;16.55;42.55
50652;BME280;66928;52.086;5.240;2023-04-09T16:36:26;102098.0;;;16.61;42.54
50652;BME280;66928;52.086;5.240;2023-04-09T16:38:04;102095.0;;;16.62;42.14
50652;BME280;66928;52.086;5.240;2023-04-09T16:41:17;102097.0;;;16.66;42.29
50652;BME280;66928;52.086;5.240;2023-04-09T16:42:54;102090.0;;;16.77;42.16